Terminal Aerodrome Forecast
Issued by NWS Pendleton, OR

Home | Current Version | Previous Version | Text Only | Print | Product List | Glossary On
Versions: 1 2 3 4 5 6 7 8 9 10 11 12 13
000
FTUS46 KPDT 311100
TAFPDT
TAF
KPDT 311120Z 3112/0112 13007KT P6SM BKN200
     FM311800 33008KT P6SM SCT150 BKN250
     FM010400 14005KT P6SM SCT150 BKN200=

USA.gov is the U.S. government's official web portal to all federal, state and local government web resources and services.